createdAt,value
2023-02-05T00:01:47.012Z,101034.92
2023-02-05T00:04:48.681Z,101034.60
2023-02-05T00:07:52.146Z,101036.44
2023-02-05T00:10:54.074Z,101043.02
2023-02-05T00:13:55.711Z,101048.44
2023-02-05T00:16:57.358Z,101051.27
2023-02-05T00:19:58.902Z,101054.93
2023-02-05T00:23:00.514Z,101055.55
2023-02-05T00:26:03.052Z,101051.11
2023-02-05T00:29:05.175Z,101057.09
2023-02-05T00:32:06.733Z,101058.70
2023-02-05T00:35:08.714Z,101067.70
2023-02-05T00:38:10.504Z,101073.63
2023-02-05T00:41:12.876Z,101077.94
2023-02-05T00:44:14.407Z,101077.69
2023-02-05T00:47:16.332Z,101071.15
2023-02-05T00:50:18.112Z,101069.50
2023-02-05T00:53:21.282Z,101070.24
2023-02-05T00:56:22.918Z,101073.30
2023-02-05T00:59:24.653Z,101071.42
2023-02-05T01:02:26.452Z,101071.00
2023-02-05T01:05:28.213Z,101068.89
2023-02-05T01:08:30.224Z,101068.77
2023-02-05T01:11:32.088Z,101070.13
2023-02-05T01:14:34.580Z,101072.67
2023-02-05T01:17:36.322Z,101078.10
2023-02-05T01:20:40.357Z,101076.41
2023-02-05T01:23:42.132Z,101068.98
2023-02-05T01:26:43.867Z,101068.16
2023-02-05T01:29:48.673Z,101066.42
2023-02-05T01:32:50.328Z,101066.87
2023-02-05T01:35:52.846Z,101064.61
2023-02-05T01:38:54.411Z,101067.59
2023-02-05T01:41:56.100Z,101068.54
2023-02-05T01:45:22.672Z,101068.96
2023-02-05T01:48:28.437Z,101077.74
2023-02-05T01:51:31.120Z,101076.38
2023-02-05T01:54:36.162Z,101076.66
2023-02-05T01:57:41.003Z,101071.80
2023-02-05T02:00:42.886Z,101069.88
2023-02-05T02:03:44.361Z,101071.17
2023-02-05T02:06:45.991Z,101073.67
2023-02-05T02:09:48.403Z,101075.48
2023-02-05T02:12:50.113Z,101075.80
2023-02-05T02:15:52.232Z,101074.09
2023-02-05T02:18:54.496Z,101077.45
2023-02-05T02:22:26.058Z,101075.60
2023-02-05T02:25:38.153Z,101073.03
2023-02-05T02:28:51.210Z,101077.26
2023-02-05T02:32:00.574Z,101078.45
2023-02-05T02:35:26.619Z,101077.08
2023-02-05T02:38:41.590Z,101082.50
2023-02-05T02:41:44.568Z,101086.36
2023-02-05T02:44:55.169Z,101091.58
2023-02-05T02:47:59.024Z,101096.14
2023-02-05T02:51:01.755Z,101102.06
2023-02-05T02:54:07.655Z,101098.87
2023-02-05T02:57:10.303Z,101103.81
2023-02-05T03:00:14.396Z,101108.55
2023-02-05T03:03:17.608Z,101109.11
2023-02-05T03:06:20.267Z,101111.16
2023-02-05T03:09:31.463Z,101114.89
2023-02-05T03:12:33.068Z,101115.94
2023-02-05T03:15:35.058Z,101114.37
2023-02-05T03:18:38.106Z,101111.30
2023-02-05T03:21:50.228Z,101110.45
2023-02-05T03:24:51.794Z,101111.02
2023-02-05T03:27:54.051Z,101116.95
2023-02-05T03:31:23.792Z,101115.34
2023-02-05T03:34:52.776Z,101113.45
2023-02-05T03:38:05.400Z,101120.31
2023-02-05T03:41:18.081Z,101122.80
2023-02-05T03:44:41.464Z,101119.42
2023-02-05T03:48:05.382Z,101118.71
2023-02-05T03:51:30.520Z,101116.02
2023-02-05T03:54:38.545Z,101119.95
2023-02-05T03:57:45.172Z,101121.09
2023-02-05T04:00:46.921Z,101118.80
2023-02-05T04:03:48.696Z,101115.73
2023-02-05T04:06:52.262Z,101112.88
2023-02-05T04:09:53.802Z,101111.40
2023-02-05T04:12:55.519Z,101110.56
2023-02-05T04:15:57.123Z,101111.33
2023-02-05T04:18:58.673Z,101108.10
2023-02-05T04:22:00.175Z,101106.85
2023-02-05T04:25:01.782Z,101108.41
2023-02-05T04:28:04.003Z,101111.13
2023-02-05T04:31:09.757Z,101113.75
2023-02-05T04:34:11.415Z,101116.13
2023-02-05T04:37:12.998Z,101121.02
2023-02-05T04:40:14.743Z,101122.13
2023-02-05T04:43:16.239Z,101123.20
2023-02-05T04:46:17.902Z,101128.30
2023-02-05T04:49:19.947Z,101131.11
2023-02-05T04:52:21.786Z,101132.43
2023-02-05T04:55:23.658Z,101130.67
2023-02-05T04:58:25.107Z,101131.61
2023-02-05T05:01:26.896Z,101133.89
2023-02-05T05:04:28.526Z,101135.98
2023-02-05T05:07:30.774Z,101138.38
2023-02-05T05:10:32.448Z,101147.16
2023-02-05T05:13:34.802Z,101144.63
2023-02-05T05:16:36.291Z,101147.42
2023-02-05T05:19:37.806Z,101148.62
2023-02-05T05:22:39.304Z,101153.95
2023-02-05T05:25:45.842Z,101162.98
2023-02-05T05:28:47.838Z,101166.03
2023-02-05T05:31:51.637Z,101167.94
2023-02-05T05:34:53.259Z,101165.29
2023-02-05T05:37:57.237Z,101165.58
2023-02-05T05:40:58.963Z,101168.67
2023-02-05T05:44:00.496Z,101165.50
2023-02-05T05:47:02.178Z,101179.14
2023-02-05T05:50:03.935Z,101190.48
2023-02-05T05:53:05.534Z,101195.65
2023-02-05T05:56:07.103Z,101207.73
2023-02-05T05:59:08.753Z,101211.96
2023-02-05T06:02:10.397Z,101218.33
2023-02-05T06:05:12.098Z,101221.20
2023-02-05T06:08:13.796Z,101224.52
2023-02-05T06:11:15.439Z,101224.29
2023-02-05T06:14:17.270Z,101227.80
2023-02-05T06:17:19.342Z,101231.05
2023-02-05T06:20:21.051Z,101231.98
2023-02-05T06:23:22.604Z,101235.83
2023-02-05T06:26:24.310Z,101242.70
2023-02-05T06:29:25.815Z,101249.97
2023-02-05T06:32:27.551Z,101251.56
2023-02-05T06:35:29.537Z,101256.42
2023-02-05T06:38:31.112Z,101257.07
2023-02-05T06:41:32.656Z,101247.95
2023-02-05T06:44:34.234Z,101252.57
2023-02-05T06:47:35.744Z,101253.73
2023-02-05T06:50:37.452Z,101254.75
2023-02-05T06:53:39.090Z,101265.27
2023-02-05T06:56:41.709Z,101270.46
2023-02-05T06:59:43.418Z,101270.48
2023-02-05T07:02:45.223Z,101271.81
2023-02-05T07:05:46.781Z,101270.36
2023-02-05T07:08:48.436Z,101271.49
2023-02-05T07:11:50.157Z,101272.56
2023-02-05T07:14:51.699Z,101278.80
2023-02-05T07:17:53.723Z,101283.69
2023-02-05T07:20:55.240Z,101287.60
2023-02-05T07:23:56.927Z,101292.35
2023-02-05T07:26:58.462Z,101290.52
2023-02-05T07:30:00.058Z,101289.02
2023-02-05T07:33:01.995Z,101296.51
2023-02-05T07:36:05.241Z,101303.79
2023-02-05T07:39:06.761Z,101309.38
2023-02-05T07:42:08.432Z,101315.12
2023-02-05T07:45:10.325Z,101318.90
2023-02-05T07:48:11.864Z,101325.23
2023-02-05T07:51:16.746Z,101330.79
2023-02-05T07:54:18.302Z,101333.05
2023-02-05T07:57:19.956Z,101332.99
2023-02-05T08:00:21.670Z,101334.05
2023-02-05T08:03:23.540Z,101337.39
2023-02-05T08:06:25.015Z,101344.29
2023-02-05T08:09:26.591Z,101348.16
2023-02-05T08:12:28.239Z,101348.36
2023-02-05T08:15:30.145Z,101347.75
2023-02-05T08:18:31.908Z,101346.82
2023-02-05T08:21:34.133Z,101342.98
2023-02-05T08:24:35.670Z,101334.58
2023-02-05T08:27:38.083Z,101335.53
2023-02-05T08:30:40.228Z,101327.46
2023-02-05T08:33:42.041Z,101330.60
2023-02-05T08:36:43.866Z,101334.27
2023-02-05T08:39:45.526Z,101339.03
2023-02-05T08:42:47.146Z,101346.67
2023-02-05T08:45:48.810Z,101346.48
2023-02-05T08:48:51.040Z,101344.89
2023-02-05T08:51:52.661Z,101344.02
2023-02-05T08:54:54.324Z,101345.39
2023-02-05T08:57:56.094Z,101344.52
2023-02-05T09:01:01.678Z,101343.15
2023-02-05T09:04:04.647Z,101345.90
2023-02-05T09:07:06.279Z,101345.27
2023-02-05T09:10:10.693Z,101347.20
2023-02-05T09:13:12.311Z,101348.97
2023-02-05T09:16:14.223Z,101357.45
2023-02-05T09:19:15.977Z,101364.27
2023-02-05T09:22:17.606Z,101362.91
2023-02-05T09:25:19.370Z,101363.25
2023-02-05T09:28:21.131Z,101364.32
2023-02-05T09:31:22.768Z,101365.41
2023-02-05T09:34:24.430Z,101359.66
2023-02-05T09:37:26.085Z,101363.54
2023-02-05T09:40:32.949Z,101360.05
2023-02-05T09:43:53.335Z,101352.61
2023-02-05T09:47:32.452Z,101355.05
2023-02-05T09:50:34.262Z,101352.17
2023-02-05T09:53:37.578Z,101356.44
2023-02-05T09:56:40.041Z,101357.90
2023-02-05T09:59:44.749Z,101359.95
2023-02-05T10:03:02.083Z,101357.52
2023-02-05T10:06:09.679Z,101362.11
2023-02-05T10:09:39.558Z,101352.31
2023-02-05T10:12:50.778Z,101360.42
2023-02-05T10:16:12.714Z,101365.86
2023-02-05T10:19:23.194Z,101362.21
2023-02-05T10:22:37.976Z,101363.79
2023-02-05T10:25:52.865Z,101365.29
2023-02-05T10:29:06.552Z,101365.31
2023-02-05T10:32:22.997Z,101362.06
2023-02-05T10:35:24.718Z,101362.30
2023-02-05T10:38:27.104Z,101363.25
2023-02-05T10:41:35.597Z,101357.50
2023-02-05T10:44:45.383Z,101353.62
2023-02-05T10:48:05.533Z,101349.33
2023-02-05T10:51:09.980Z,101350.05
2023-02-05T10:54:23.590Z,101354.30
2023-02-05T10:57:28.903Z,101360.65
2023-02-05T11:00:30.658Z,101364.33
2023-02-05T11:03:32.668Z,101366.81
2023-02-05T11:06:40.908Z,101371.91
2023-02-05T11:09:42.452Z,101369.05
2023-02-05T11:12:46.523Z,101366.37
2023-02-05T11:15:55.861Z,101356.39
2023-02-05T11:19:00.129Z,101356.63
2023-02-05T11:22:04.323Z,101358.77
2023-02-05T11:25:18.186Z,101357.11
2023-02-05T11:28:27.180Z,101360.41
2023-02-05T11:31:32.788Z,101365.46
2023-02-05T11:34:34.404Z,101362.71
2023-02-05T11:37:39.279Z,101362.89
2023-02-05T11:40:40.841Z,101361.13
2023-02-05T11:43:50.650Z,101359.52
2023-02-05T11:46:53.302Z,101358.10
2023-02-05T11:49:55.491Z,101358.48
2023-02-05T11:53:07.425Z,101351.31
2023-02-05T11:56:10.748Z,101346.56
2023-02-05T11:59:21.525Z,101346.30
2023-02-05T12:02:26.322Z,101334.52
2023-02-05T12:05:44.644Z,101337.27
2023-02-05T12:08:49.604Z,101334.70
2023-02-05T12:12:10.068Z,101334.73
2023-02-05T12:15:28.019Z,101334.05
2023-02-05T12:18:37.731Z,101335.41
2023-02-05T12:21:58.296Z,101337.14
2023-02-05T12:25:02.975Z,101343.59
2023-02-05T12:28:23.374Z,101342.87
2023-02-05T12:32:03.459Z,101350.83
2023-02-05T12:35:10.830Z,101347.89
2023-02-05T12:38:13.521Z,101353.20
2023-02-05T12:41:51.703Z,101356.37
2023-02-05T12:45:17.855Z,101357.58
2023-02-05T12:48:36.862Z,101355.29
2023-02-05T12:51:47.575Z,101352.98
2023-02-05T12:55:14.794Z,101349.79
2023-02-05T12:58:17.044Z,101351.23
2023-02-05T13:01:23.141Z,101351.86
2023-02-05T13:04:44.197Z,101351.17
2023-02-05T13:07:50.909Z,101350.14
2023-02-05T13:10:56.648Z,101348.42
2023-02-05T13:14:02.159Z,101345.83
2023-02-05T13:17:19.402Z,101346.86
2023-02-05T13:20:31.522Z,101341.45
2023-02-05T13:23:35.553Z,101347.64
2023-02-05T13:26:42.429Z,101344.84
2023-02-05T13:29:49.031Z,101342.98
2023-02-05T13:32:54.141Z,101338.49
2023-02-05T13:36:23.737Z,101339.13
2023-02-05T13:39:47.201Z,101337.54
2023-02-05T13:43:04.262Z,101335.64
2023-02-05T13:46:24.872Z,101335.79
2023-02-05T13:49:41.582Z,101339.80
2023-02-05T13:53:03.361Z,101334.95
2023-02-05T13:56:44.285Z,101336.67
2023-02-05T13:59:49.042Z,101339.05
2023-02-05T14:02:54.619Z,101342.94
2023-02-05T14:05:56.833Z,101345.17
2023-02-05T14:09:10.307Z,101344.26
2023-02-05T14:12:21.450Z,101341.05
2023-02-05T14:15:24.683Z,101341.51
2023-02-05T14:18:47.674Z,101335.85
2023-02-05T14:21:55.631Z,101336.43
2023-02-05T14:24:57.217Z,101334.08
2023-02-05T14:27:58.831Z,101334.79
2023-02-05T14:31:02.341Z,101334.60
2023-02-05T14:34:28.903Z,101338.08
2023-02-05T14:37:35.344Z,101341.05
2023-02-05T14:40:37.595Z,101344.40
2023-02-05T14:43:41.206Z,101345.98
2023-02-05T14:46:45.206Z,101343.27
2023-02-05T14:49:48.410Z,101339.42
2023-02-05T14:52:56.960Z,101340.36
2023-02-05T14:55:58.675Z,101342.02
2023-02-05T14:59:05.780Z,101346.79
2023-02-05T15:02:46.420Z,101347.82
2023-02-05T15:06:04.622Z,101349.05
2023-02-05T15:09:19.754Z,101344.95
2023-02-05T15:12:55.465Z,101346.30
2023-02-05T15:16:09.348Z,101351.83
2023-02-05T15:19:11.705Z,101354.91
2023-02-05T15:22:28.612Z,101363.42
2023-02-05T15:25:38.223Z,101364.92
2023-02-05T15:28:53.928Z,101356.58
2023-02-05T15:32:01.085Z,101355.52
2023-02-05T15:35:06.123Z,101357.65
2023-02-05T15:38:41.564Z,101361.83
2023-02-05T15:41:43.831Z,101367.46
2023-02-05T15:44:45.388Z,101363.19
2023-02-05T15:48:00.727Z,101367.06
2023-02-05T15:51:12.749Z,101367.82
2023-02-05T15:54:20.117Z,101372.25
2023-02-05T15:57:27.684Z,101376.95
2023-02-05T16:00:30.686Z,101374.58
2023-02-05T16:03:36.910Z,101377.61
2023-02-05T16:06:38.433Z,101375.77
2023-02-05T16:09:46.800Z,101377.17
2023-02-05T16:13:06.635Z,101383.85
2023-02-05T16:16:15.210Z,101389.59
2023-02-05T16:19:21.914Z,101384.52
2023-02-05T16:22:29.655Z,101381.33
2023-02-05T16:25:40.746Z,101388.17
2023-02-05T16:28:46.613Z,101390.15
2023-02-05T16:31:48.397Z,101391.73
2023-02-05T16:34:50.128Z,101389.30
2023-02-05T16:37:52.064Z,101390.10
2023-02-05T16:40:54.828Z,101392.29
2023-02-05T16:43:58.684Z,101392.39
2023-02-05T16:47:09.436Z,101392.96
2023-02-05T16:50:37.691Z,101394.11
2023-02-05T16:53:49.244Z,101394.64
2023-02-05T16:56:58.485Z,101402.95
2023-02-05T17:00:04.036Z,101403.48
2023-02-05T17:03:14.878Z,101414.80
2023-02-05T17:06:18.260Z,101410.86
2023-02-05T17:09:46.089Z,101410.69
2023-02-05T17:12:52.421Z,101419.39
2023-02-05T17:15:54.047Z,101419.81
2023-02-05T17:19:04.377Z,101421.81
2023-02-05T17:22:15.220Z,101417.65
2023-02-05T17:25:16.958Z,101413.93
2023-02-05T17:28:21.373Z,101412.38
2023-02-05T17:31:24.739Z,101410.56
2023-02-05T17:34:26.413Z,101413.66
2023-02-05T17:37:28.224Z,101416.19
2023-02-05T17:40:29.911Z,101419.55
2023-02-05T17:43:31.572Z,101422.48
2023-02-05T17:46:33.130Z,101421.95
2023-02-05T17:49:34.695Z,101427.95
2023-02-05T17:52:36.529Z,101426.58
2023-02-05T17:55:39.123Z,101432.38
2023-02-05T17:58:41.052Z,101433.08
2023-02-05T18:01:42.501Z,101432.10
2023-02-05T18:04:44.373Z,101431.36
2023-02-05T18:07:46.803Z,101438.23
2023-02-05T18:10:48.382Z,101440.88
2023-02-05T18:13:50.102Z,101442.38
2023-02-05T18:16:51.649Z,101444.11
2023-02-05T18:19:53.507Z,101444.98
2023-02-05T18:22:55.032Z,101443.41
2023-02-05T18:25:59.496Z,101445.52
2023-02-05T18:29:01.105Z,101451.36
2023-02-05T18:32:03.998Z,101451.27
2023-02-05T18:35:05.897Z,101457.73
2023-02-05T18:38:07.509Z,101459.09
2023-02-05T18:41:16.132Z,101458.14
2023-02-05T18:44:17.739Z,101462.63
2023-02-05T18:47:19.374Z,101464.76
2023-02-05T18:50:20.874Z,101460.36
2023-02-05T18:53:22.698Z,101466.41
2023-02-05T18:56:27.249Z,101473.33
2023-02-05T18:59:28.842Z,101470.02
2023-02-05T19:02:30.365Z,101472.20
2023-02-05T19:05:34.675Z,101478.48
2023-02-05T19:08:36.997Z,101483.79
2023-02-05T19:11:38.613Z,101483.15
2023-02-05T19:14:40.485Z,101477.19
2023-02-05T19:17:42.008Z,101472.09
2023-02-05T19:20:45.696Z,101478.73
2023-02-05T19:23:53.587Z,101489.86
2023-02-05T19:26:55.873Z,101489.42
2023-02-05T19:29:57.652Z,101485.73
2023-02-05T19:32:59.302Z,101485.61
2023-02-05T19:36:01.760Z,101487.98
2023-02-05T19:39:05.928Z,101484.98
2023-02-05T19:42:07.494Z,101487.68
2023-02-05T19:45:09.268Z,101490.38
2023-02-05T19:48:12.120Z,101490.98
2023-02-05T19:51:17.273Z,101489.93
2023-02-05T19:54:21.220Z,101488.21
2023-02-05T19:57:23.369Z,101480.73
2023-02-05T20:00:25.249Z,101474.73
2023-02-05T20:03:30.286Z,101475.75
2023-02-05T20:06:31.915Z,101482.33
2023-02-05T20:09:33.591Z,101484.69
2023-02-05T20:12:35.123Z,101484.98
2023-02-05T20:15:37.067Z,101480.63
2023-02-05T20:18:38.711Z,101471.99
2023-02-05T20:21:40.760Z,101477.73
2023-02-05T20:24:42.410Z,101480.66
2023-02-05T20:27:43.994Z,101481.95
2023-02-05T20:30:45.638Z,101486.37
2023-02-05T20:33:47.262Z,101489.98
2023-02-05T20:37:00.247Z,101495.98
2023-02-05T20:40:02.001Z,101500.10
2023-02-05T20:43:03.646Z,101509.83
2023-02-05T20:46:05.592Z,101514.08
2023-02-05T20:49:07.716Z,101513.67
2023-02-05T20:52:11.946Z,101513.67
2023-02-05T20:55:13.567Z,101517.38
2023-02-05T20:58:15.185Z,101527.34
2023-02-05T21:01:17.993Z,101529.88
2023-02-05T21:04:19.622Z,101538.32
2023-02-05T21:07:21.296Z,101542.05
2023-02-05T21:10:23.019Z,101547.02
2023-02-05T21:13:24.698Z,101545.08
2023-02-05T21:16:28.121Z,101547.39
2023-02-05T21:19:29.793Z,101543.80
2023-02-05T21:22:31.335Z,101550.23
2023-02-05T21:25:35.691Z,101551.45
2023-02-05T21:28:37.331Z,101557.80
2023-02-05T21:31:50.630Z,101553.52
2023-02-05T21:34:52.448Z,101550.69
2023-02-05T21:37:54.038Z,101559.29
2023-02-05T21:40:55.557Z,101565.83
2023-02-05T21:43:59.369Z,101569.05
2023-02-05T21:47:01.175Z,101573.51
2023-02-05T21:50:03.779Z,101576.81
2023-02-05T21:53:05.654Z,101581.29
2023-02-05T21:56:10.289Z,101582.66
2023-02-05T21:59:12.762Z,101586.64
2023-02-05T22:02:14.803Z,101589.29
2023-02-05T22:05:16.544Z,101595.32
2023-02-05T22:08:18.185Z,101597.15
2023-02-05T22:11:21.640Z,101594.49
2023-02-05T22:14:23.376Z,101597.20
2023-02-05T22:17:25.180Z,101601.64
2023-02-05T22:20:26.783Z,101606.70
2023-02-05T22:23:28.855Z,101612.06
2023-02-05T22:26:35.601Z,101612.45
2023-02-05T22:29:37.277Z,101616.20
2023-02-05T22:32:38.994Z,101611.84
2023-02-05T22:35:43.191Z,101615.00
2023-02-05T22:38:44.869Z,101614.73
2023-02-05T22:41:46.434Z,101621.59
2023-02-05T22:44:48.270Z,101620.66
2023-02-05T22:47:49.920Z,101615.32
2023-02-05T22:50:51.486Z,101611.95
2023-02-05T22:53:54.468Z,101612.76
2023-02-05T22:56:56.055Z,101611.80
2023-02-05T22:59:57.779Z,101609.96
2023-02-05T23:03:00.304Z,101616.57
2023-02-05T23:06:08.204Z,101611.27
2023-02-05T23:09:15.578Z,101618.86
2023-02-05T23:12:17.430Z,101612.48
2023-02-05T23:15:19.032Z,101616.36
2023-02-05T23:18:20.644Z,101626.56
2023-02-05T23:21:24.433Z,101623.82
2023-02-05T23:24:26.117Z,101621.68
2023-02-05T23:27:28.749Z,101621.20
2023-02-05T23:30:30.479Z,101627.64
2023-02-05T23:33:33.396Z,101626.30
2023-02-05T23:36:35.173Z,101618.36
2023-02-05T23:39:37.097Z,101622.52
2023-02-05T23:42:38.582Z,101624.59
2023-02-05T23:45:40.148Z,101625.96
2023-02-05T23:48:41.667Z,101629.40
2023-02-05T23:51:43.510Z,101635.16
2023-02-05T23:54:45.042Z,101630.48
2023-02-05T23:57:46.601Z,101640.98
